Portland, Oregon
Traffic Map
Current Weather Conditions
Portland, Oregon
Broken Clouds
Broken Clouds
13°
Feels Like: 13°
Wind Chill: 13° Ceiling: 4500
Heat Index: 13° Visibility: 10mi
Dew Point: Wind: 14mph
Humidity: 75% Direction: 190° (S)
Pressure: 29.87in Gusts: 0mph
Raw Report DataKPDX 280353Z 19012KT 10SM SCT032 BKN045 BKN070 13/09 A2987 RMK AO2 RAE28 SLP115 P0000 T01330089
Traffic Incident Summary
Active as of:
Severity:
Category:
InformationThere was an issue retrieving the traffic information for this location. Please try a different location or try again shortly.
Advertisements
Track Severe Weather on mobile